sensor_id;sensor_type;location;lat;lon;timestamp;pressure;altitude;pressure_sealevel;temperature;humidity
23589;BME280;11972;48.078;11.876;2023-12-20T00:02:33;95459.69;;;4.02;100.00
23589;BME280;11972;48.078;11.876;2023-12-20T00:06:33;95458.72;;;4.03;100.00
23589;BME280;11972;48.078;11.876;2023-12-20T00:10:33;95458.00;;;4.11;100.00
23589;BME280;11972;48.078;11.876;2023-12-20T00:14:34;95455.50;;;4.19;100.00
23589;BME280;11972;48.078;11.876;2023-12-20T00:18:34;95445.56;;;4.22;100.00
23589;BME280;11972;48.078;11.876;2023-12-20T00:22:34;95436.44;;;4.36;100.00
23589;BME280;11972;48.078;11.876;2023-12-20T00:26:35;95431.69;;;4.50;100.00
23589;BME280;11972;48.078;11.876;2023-12-20T00:30:35;95436.03;;;4.59;100.00
23589;BME280;11972;48.078;11.876;2023-12-20T00:34:36;95423.03;;;4.67;100.00
23589;BME280;11972;48.078;11.876;2023-12-20T00:38:36;95433.78;;;4.64;100.00
23589;BME280;11972;48.078;11.876;2023-12-20T00:42:37;95419.56;;;4.48;100.00
23589;BME280;11972;48.078;11.876;2023-12-20T00:46:37;95416.34;;;4.37;100.00
23589;BME280;11972;48.078;11.876;2023-12-20T00:50:37;95417.44;;;4.34;100.00
23589;BME280;11972;48.078;11.876;2023-12-20T00:54:38;95414.38;;;4.39;100.00
23589;BME280;11972;48.078;11.876;2023-12-20T00:58:38;95410.38;;;4.44;100.00
23589;BME280;11972;48.078;11.876;2023-12-20T01:02:38;95406.50;;;4.48;100.00
23589;BME280;11972;48.078;11.876;2023-12-20T01:06:39;95394.09;;;4.51;100.00
23589;BME280;11972;48.078;11.876;2023-12-20T01:10:39;95394.44;;;4.56;100.00
23589;BME280;11972;48.078;11.876;2023-12-20T01:14:40;95394.53;;;4.64;100.00
23589;BME280;11972;48.078;11.876;2023-12-20T01:18:40;95389.00;;;4.67;100.00
23589;BME280;11972;48.078;11.876;2023-12-20T01:22:41;95378.38;;;4.68;100.00
23589;BME280;11972;48.078;11.876;2023-12-20T01:26:43;95369.06;;;4.66;100.00
23589;BME280;11972;48.078;11.876;2023-12-20T01:30:43;95369.50;;;4.61;100.00
23589;BME280;11972;48.078;11.876;2023-12-20T01:34:43;95368.66;;;4.61;100.00
23589;BME280;11972;48.078;11.876;2023-12-20T01:38:44;95351.69;;;4.65;100.00
23589;BME280;11972;48.078;11.876;2023-12-20T01:42:44;95346.19;;;4.68;100.00
23589;BME280;11972;48.078;11.876;2023-12-20T01:46:45;95357.47;;;4.68;100.00
23589;BME280;11972;48.078;11.876;2023-12-20T01:50:45;95348.66;;;4.69;100.00
23589;BME280;11972;48.078;11.876;2023-12-20T01:54:47;95350.13;;;4.72;100.00
23589;BME280;11972;48.078;11.876;2023-12-20T01:58:48;95340.03;;;4.77;100.00
23589;BME280;11972;48.078;11.876;2023-12-20T02:02:50;95332.03;;;4.79;100.00
23589;BME280;11972;48.078;11.876;2023-12-20T02:06:52;95326.00;;;4.78;100.00
23589;BME280;11972;48.078;11.876;2023-12-20T02:10:53;95322.69;;;4.76;100.00
23589;BME280;11972;48.078;11.876;2023-12-20T02:14:54;95317.16;;;4.79;100.00
23589;BME280;11972;48.078;11.876;2023-12-20T02:18:54;95306.00;;;4.77;100.00
23589;BME280;11972;48.078;11.876;2023-12-20T02:22:55;95293.25;;;4.74;100.00
23589;BME280;11972;48.078;11.876;2023-12-20T02:26:55;95288.47;;;4.69;100.00
23589;BME280;11972;48.078;11.876;2023-12-20T02:30:55;95291.84;;;4.62;100.00
23589;BME280;11972;48.078;11.876;2023-12-20T02:34:56;95293.41;;;4.55;100.00
23589;BME280;11972;48.078;11.876;2023-12-20T02:38:56;95292.59;;;4.54;100.00
23589;BME280;11972;48.078;11.876;2023-12-20T02:42:57;95298.66;;;4.55;100.00
23589;BME280;11972;48.078;11.876;2023-12-20T02:46:57;95301.25;;;4.55;100.00
23589;BME280;11972;48.078;11.876;2023-12-20T02:50:57;95291.31;;;4.58;100.00
23589;BME280;11972;48.078;11.876;2023-12-20T02:54:58;95296.91;;;4.63;100.00
23589;BME280;11972;48.078;11.876;2023-12-20T02:58:58;95271.44;;;4.65;100.00
23589;BME280;11972;48.078;11.876;2023-12-20T03:02:58;95276.97;;;4.62;100.00
23589;BME280;11972;48.078;11.876;2023-12-20T03:06:59;95280.69;;;4.60;100.00
23589;BME280;11972;48.078;11.876;2023-12-20T03:11:00;95275.63;;;4.58;100.00
23589;BME280;11972;48.078;11.876;2023-12-20T03:15:00;95278.09;;;4.60;100.00
23589;BME280;11972;48.078;11.876;2023-12-20T03:19:00;95271.56;;;4.64;100.00
23589;BME280;11972;48.078;11.876;2023-12-20T03:23:01;95264.09;;;4.69;100.00
23589;BME280;11972;48.078;11.876;2023-12-20T03:27:01;95270.06;;;4.79;100.00
23589;BME280;11972;48.078;11.876;2023-12-20T03:31:01;95264.22;;;4.85;100.00
23589;BME280;11972;48.078;11.876;2023-12-20T03:35:02;95265.25;;;4.92;100.00
23589;BME280;11972;48.078;11.876;2023-12-20T03:39:03;95255.81;;;5.00;100.00
23589;BME280;11972;48.078;11.876;2023-12-20T03:43:03;95260.41;;;5.06;100.00
23589;BME280;11972;48.078;11.876;2023-12-20T03:47:03;95274.22;;;5.16;100.00
23589;BME280;11972;48.078;11.876;2023-12-20T03:51:04;95280.53;;;5.31;100.00
23589;BME280;11972;48.078;11.876;2023-12-20T03:55:04;95284.53;;;5.43;100.00
23589;BME280;11972;48.078;11.876;2023-12-20T03:59:05;95292.44;;;5.52;100.00
23589;BME280;11972;48.078;11.876;2023-12-20T04:03:05;95298.66;;;5.59;100.00
23589;BME280;11972;48.078;11.876;2023-12-20T04:07:06;95311.16;;;5.65;100.00
23589;BME280;11972;48.078;11.876;2023-12-20T04:11:06;95311.28;;;5.63;100.00
23589;BME280;11972;48.078;11.876;2023-12-20T04:15:07;95321.28;;;5.60;100.00
23589;BME280;11972;48.078;11.876;2023-12-20T04:19:09;95319.13;;;5.55;100.00
23589;BME280;11972;48.078;11.876;2023-12-20T04:23:09;95324.19;;;5.48;100.00
23589;BME280;11972;48.078;11.876;2023-12-20T04:27:10;95327.78;;;5.47;100.00
23589;BME280;11972;48.078;11.876;2023-12-20T04:31:10;95324.47;;;5.45;100.00
23589;BME280;11972;48.078;11.876;2023-12-20T04:35:10;95326.13;;;5.46;100.00
23589;BME280;11972;48.078;11.876;2023-12-20T04:39:12;95331.34;;;5.46;100.00
23589;BME280;11972;48.078;11.876;2023-12-20T04:43:13;95334.97;;;5.45;100.00
23589;BME280;11972;48.078;11.876;2023-12-20T04:47:13;95326.78;;;5.48;100.00
23589;BME280;11972;48.078;11.876;2023-12-20T04:51:14;95334.66;;;5.48;100.00
23589;BME280;11972;48.078;11.876;2023-12-20T04:55:14;95348.41;;;5.51;100.00
23589;BME280;11972;48.078;11.876;2023-12-20T04:59:14;95373.38;;;5.63;100.00
23589;BME280;11972;48.078;11.876;2023-12-20T05:03:15;95368.84;;;5.73;100.00
23589;BME280;11972;48.078;11.876;2023-12-20T05:07:15;95382.00;;;5.81;100.00
23589;BME280;11972;48.078;11.876;2023-12-20T05:11:15;95391.91;;;5.95;100.00
23589;BME280;11972;48.078;11.876;2023-12-20T05:15:16;95406.25;;;5.83;100.00
23589;BME280;11972;48.078;11.876;2023-12-20T05:19:16;95413.94;;;5.59;100.00
23589;BME280;11972;48.078;11.876;2023-12-20T05:23:16;95423.59;;;5.32;100.00
23589;BME280;11972;48.078;11.876;2023-12-20T05:27:18;95430.00;;;5.12;100.00
23589;BME280;11972;48.078;11.876;2023-12-20T05:31:19;95446.06;;;4.99;100.00
23589;BME280;11972;48.078;11.876;2023-12-20T05:35:19;95448.16;;;4.95;100.00
23589;BME280;11972;48.078;11.876;2023-12-20T05:39:19;95455.78;;;4.89;100.00
23589;BME280;11972;48.078;11.876;2023-12-20T05:43:19;95457.22;;;4.83;100.00
23589;BME280;11972;48.078;11.876;2023-12-20T05:47:20;95472.22;;;4.81;100.00
23589;BME280;11972;48.078;11.876;2023-12-20T05:51:20;95472.13;;;4.73;100.00
23589;BME280;11972;48.078;11.876;2023-12-20T05:55:20;95481.41;;;4.67;100.00
23589;BME280;11972;48.078;11.876;2023-12-20T05:59:21;95492.31;;;4.63;100.00
23589;BME280;11972;48.078;11.876;2023-12-20T06:03:21;95500.44;;;4.60;100.00
23589;BME280;11972;48.078;11.876;2023-12-20T06:07:21;95512.16;;;4.56;100.00
23589;BME280;11972;48.078;11.876;2023-12-20T06:11:22;95518.66;;;4.52;100.00
23589;BME280;11972;48.078;11.876;2023-12-20T06:15:22;95522.25;;;4.51;100.00
23589;BME280;11972;48.078;11.876;2023-12-20T06:19:23;95525.16;;;4.47;100.00
23589;BME280;11972;48.078;11.876;2023-12-20T06:23:23;95530.00;;;4.42;100.00
23589;BME280;11972;48.078;11.876;2023-12-20T06:27:24;95526.19;;;4.37;100.00
23589;BME280;11972;48.078;11.876;2023-12-20T06:31:24;95524.81;;;4.33;100.00
23589;BME280;11972;48.078;11.876;2023-12-20T06:35:24;95531.13;;;4.30;100.00
23589;BME280;11972;48.078;11.876;2023-12-20T06:39:24;95533.09;;;4.28;100.00
23589;BME280;11972;48.078;11.876;2023-12-20T06:43:25;95552.66;;;4.24;100.00
23589;BME280;11972;48.078;11.876;2023-12-20T06:47:25;95549.91;;;4.16;100.00
23589;BME280;11972;48.078;11.876;2023-12-20T06:51:28;95559.94;;;4.11;100.00
23589;BME280;11972;48.078;11.876;2023-12-20T06:55:28;95569.03;;;4.07;100.00
23589;BME280;11972;48.078;11.876;2023-12-20T06:59:29;95582.41;;;4.04;100.00
23589;BME280;11972;48.078;11.876;2023-12-20T07:03:30;95591.50;;;4.00;100.00
23589;BME280;11972;48.078;11.876;2023-12-20T07:07:30;95582.97;;;3.88;100.00
23589;BME280;11972;48.078;11.876;2023-12-20T07:11:30;95590.41;;;3.83;100.00
23589;BME280;11972;48.078;11.876;2023-12-20T07:15:31;95584.66;;;3.79;100.00
23589;BME280;11972;48.078;11.876;2023-12-20T07:19:31;95591.13;;;3.75;100.00
23589;BME280;11972;48.078;11.876;2023-12-20T07:23:32;95597.44;;;3.72;100.00
23589;BME280;11972;48.078;11.876;2023-12-20T07:27:32;95608.84;;;3.71;100.00
23589;BME280;11972;48.078;11.876;2023-12-20T07:31:33;95611.56;;;3.70;100.00
23589;BME280;11972;48.078;11.876;2023-12-20T07:35:34;95611.31;;;3.73;100.00
23589;BME280;11972;48.078;11.876;2023-12-20T07:39:35;95616.81;;;3.70;100.00
23589;BME280;11972;48.078;11.876;2023-12-20T07:43:35;95626.56;;;3.68;100.00
23589;BME280;11972;48.078;11.876;2023-12-20T07:47:35;95618.75;;;3.68;100.00
23589;BME280;11972;48.078;11.876;2023-12-20T07:51:36;95617.66;;;3.70;100.00
23589;BME280;11972;48.078;11.876;2023-12-20T07:55:36;95615.72;;;3.72;100.00
23589;BME280;11972;48.078;11.876;2023-12-20T07:59:37;95606.09;;;3.73;100.00
23589;BME280;11972;48.078;11.876;2023-12-20T08:03:38;95615.56;;;3.74;100.00
23589;BME280;11972;48.078;11.876;2023-12-20T08:07:38;95623.41;;;3.74;100.00
23589;BME280;11972;48.078;11.876;2023-12-20T08:11:38;95621.50;;;3.76;100.00
23589;BME280;11972;48.078;11.876;2023-12-20T08:15:39;95625.63;;;3.79;100.00
23589;BME280;11972;48.078;11.876;2023-12-20T08:19:39;95624.50;;;3.81;100.00
23589;BME280;11972;48.078;11.876;2023-12-20T08:23:39;95627.69;;;3.85;100.00
23589;BME280;11972;48.078;11.876;2023-12-20T08:27:40;95637.97;;;3.86;100.00
23589;BME280;11972;48.078;11.876;2023-12-20T08:31:41;95636.06;;;3.88;100.00
23589;BME280;11972;48.078;11.876;2023-12-20T08:35:41;95643.91;;;3.88;100.00
23589;BME280;11972;48.078;11.876;2023-12-20T08:39:42;95645.69;;;3.88;100.00
23589;BME280;11972;48.078;11.876;2023-12-20T08:43:44;95644.56;;;3.90;100.00
23589;BME280;11972;48.078;11.876;2023-12-20T08:47:44;95644.31;;;3.93;100.00
23589;BME280;11972;48.078;11.876;2023-12-20T08:51:45;95646.09;;;3.93;100.00
23589;BME280;11972;48.078;11.876;2023-12-20T08:55:46;95646.91;;;3.93;100.00
23589;BME280;11972;48.078;11.876;2023-12-20T08:59:47;95647.91;;;3.92;100.00
23589;BME280;11972;48.078;11.876;2023-12-20T09:03:47;95642.41;;;3.95;100.00
23589;BME280;11972;48.078;11.876;2023-12-20T09:07:48;95636.31;;;3.95;100.00
23589;BME280;11972;48.078;11.876;2023-12-20T09:11:48;95640.19;;;3.91;100.00
23589;BME280;11972;48.078;11.876;2023-12-20T09:15:51;95639.91;;;3.94;100.00
23589;BME280;11972;48.078;11.876;2023-12-20T09:19:51;95629.72;;;4.01;100.00
23589;BME280;11972;48.078;11.876;2023-12-20T09:23:54;95635.09;;;4.09;100.00
23589;BME280;11972;48.078;11.876;2023-12-20T09:27:54;95628.03;;;4.19;100.00
23589;BME280;11972;48.078;11.876;2023-12-20T09:31:54;95633.69;;;4.24;100.00
23589;BME280;11972;48.078;11.876;2023-12-20T09:35:55;95648.69;;;4.22;100.00
23589;BME280;11972;48.078;11.876;2023-12-20T09:39:55;95635.63;;;4.22;100.00
23589;BME280;11972;48.078;11.876;2023-12-20T09:43:58;95631.63;;;4.18;100.00
23589;BME280;11972;48.078;11.876;2023-12-20T09:48:01;95628.34;;;4.16;100.00
23589;BME280;11972;48.078;11.876;2023-12-20T09:52:04;95626.81;;;4.13;100.00
23589;BME280;11972;48.078;11.876;2023-12-20T09:56:05;95630.00;;;4.17;100.00
23589;BME280;11972;48.078;11.876;2023-12-20T10:00:06;95619.53;;;4.17;100.00
23589;BME280;11972;48.078;11.876;2023-12-20T10:04:09;95616.66;;;4.20;100.00
23589;BME280;11972;48.078;11.876;2023-12-20T10:08:12;95615.41;;;4.24;100.00
23589;BME280;11972;48.078;11.876;2023-12-20T10:12:12;95625.84;;;4.24;100.00
23589;BME280;11972;48.078;11.876;2023-12-20T10:16:13;95611.00;;;4.25;100.00
23589;BME280;11972;48.078;11.876;2023-12-20T10:20:14;95601.34;;;4.25;100.00
23589;BME280;11972;48.078;11.876;2023-12-20T10:24:17;95598.59;;;4.27;100.00
23589;BME280;11972;48.078;11.876;2023-12-20T10:28:18;95601.31;;;4.35;100.00
23589;BME280;11972;48.078;11.876;2023-12-20T10:32:27;95600.22;;;4.37;100.00
23589;BME280;11972;48.078;11.876;2023-12-20T10:36:29;95598.41;;;4.38;100.00
23589;BME280;11972;48.078;11.876;2023-12-20T10:40:30;95589.31;;;4.42;100.00
23589;BME280;11972;48.078;11.876;2023-12-20T10:44:30;95585.03;;;4.51;100.00
23589;BME280;11972;48.078;11.876;2023-12-20T10:48:31;95589.69;;;4.57;100.00
23589;BME280;11972;48.078;11.876;2023-12-20T10:52:33;95591.03;;;4.61;100.00
23589;BME280;11972;48.078;11.876;2023-12-20T10:56:35;95579.31;;;4.65;100.00
23589;BME280;11972;48.078;11.876;2023-12-20T11:00:41;95574.88;;;4.75;100.00
23589;BME280;11972;48.078;11.876;2023-12-20T11:05:08;95573.63;;;4.79;100.00
23589;BME280;11972;48.078;11.876;2023-12-20T11:13:22;95557.03;;;4.88;100.00
23589;BME280;11972;48.078;11.876;2023-12-20T11:17:23;95555.09;;;4.90;100.00
23589;BME280;11972;48.078;11.876;2023-12-20T11:21:24;95566.84;;;4.86;100.00
23589;BME280;11972;48.078;11.876;2023-12-20T11:25:26;95563.97;;;4.80;100.00
23589;BME280;11972;48.078;11.876;2023-12-20T11:33:36;95564.25;;;4.77;100.00
23589;BME280;11972;48.078;11.876;2023-12-20T11:37:38;95569.63;;;4.75;100.00
23589;BME280;11972;48.078;11.876;2023-12-20T11:41:44;95560.16;;;4.74;100.00
23589;BME280;11972;48.078;11.876;2023-12-20T11:45:49;95560.97;;;4.75;100.00
23589;BME280;11972;48.078;11.876;2023-12-20T11:49:50;95543.31;;;4.77;100.00
23589;BME280;11972;48.078;11.876;2023-12-20T11:53:51;95549.78;;;4.82;100.00
23589;BME280;11972;48.078;11.876;2023-12-20T11:57:52;95544.38;;;4.84;100.00
23589;BME280;11972;48.078;11.876;2023-12-20T12:01:53;95539.97;;;4.84;100.00
23589;BME280;11972;48.078;11.876;2023-12-20T12:05:56;95543.50;;;4.93;100.00
23589;BME280;11972;48.078;11.876;2023-12-20T12:09:57;95538.81;;;4.96;100.00
23589;BME280;11972;48.078;11.876;2023-12-20T12:13:58;95524.97;;;5.04;100.00
23589;BME280;11972;48.078;11.876;2023-12-20T12:17:58;95523.50;;;5.19;100.00
23589;BME280;11972;48.078;11.876;2023-12-20T12:22:09;95518.09;;;5.21;100.00
23589;BME280;11972;48.078;11.876;2023-12-20T12:26:13;95512.41;;;5.26;100.00
23589;BME280;11972;48.078;11.876;2023-12-20T12:30:16;95523.78;;;5.16;100.00
23589;BME280;11972;48.078;11.876;2023-12-20T12:34:18;95527.53;;;5.14;100.00
23589;BME280;11972;48.078;11.876;2023-12-20T12:38:22;95519.09;;;5.20;100.00
23589;BME280;11972;48.078;11.876;2023-12-20T12:42:24;95515.13;;;5.16;100.00
23589;BME280;11972;48.078;11.876;2023-12-20T12:46:28;95511.16;;;5.12;100.00
23589;BME280;11972;48.078;11.876;2023-12-20T12:50:30;95496.03;;;5.06;100.00
23589;BME280;11972;48.078;11.876;2023-12-20T12:54:30;95506.56;;;4.96;100.00
23589;BME280;11972;48.078;11.876;2023-12-20T12:58:31;95502.59;;;4.92;100.00
23589;BME280;11972;48.078;11.876;2023-12-20T13:02:32;95483.53;;;4.82;100.00
23589;BME280;11972;48.078;11.876;2023-12-20T13:06:32;95491.81;;;4.77;100.00
23589;BME280;11972;48.078;11.876;2023-12-20T13:10:33;95474.47;;;4.76;100.00
23589;BME280;11972;48.078;11.876;2023-12-20T13:14:34;95479.84;;;4.75;100.00
23589;BME280;11972;48.078;11.876;2023-12-20T13:18:35;95473.94;;;4.72;100.00
23589;BME280;11972;48.078;11.876;2023-12-20T13:22:35;95473.09;;;4.72;100.00
23589;BME280;11972;48.078;11.876;2023-12-20T13:26:36;95469.00;;;4.69;100.00
23589;BME280;11972;48.078;11.876;2023-12-20T13:30:36;95481.66;;;4.74;100.00
23589;BME280;11972;48.078;11.876;2023-12-20T13:34:36;95474.75;;;4.73;100.00
23589;BME280;11972;48.078;11.876;2023-12-20T13:38:37;95486.34;;;4.70;100.00
23589;BME280;11972;48.078;11.876;2023-12-20T13:42:37;95512.13;;;4.38;100.00
23589;BME280;11972;48.078;11.876;2023-12-20T13:46:37;95502.31;;;3.56;100.00
23589;BME280;11972;48.078;11.876;2023-12-20T13:50:38;95503.41;;;3.43;100.00
23589;BME280;11972;48.078;11.876;2023-12-20T13:54:38;95505.75;;;3.46;100.00
23589;BME280;11972;48.078;11.876;2023-12-20T13:58:38;95504.66;;;3.39;100.00
23589;BME280;11972;48.078;11.876;2023-12-20T14:02:42;95504.94;;;3.36;100.00
23589;BME280;11972;48.078;11.876;2023-12-20T14:06:43;95506.16;;;3.32;100.00
23589;BME280;11972;48.078;11.876;2023-12-20T14:10:44;95511.25;;;3.24;100.00
23589;BME280;11972;48.078;11.876;2023-12-20T14:14:44;95522.00;;;3.21;100.00
23589;BME280;11972;48.078;11.876;2023-12-20T14:18:45;95525.84;;;3.17;100.00
23589;BME280;11972;48.078;11.876;2023-12-20T14:22:45;95529.13;;;3.19;100.00
23589;BME280;11972;48.078;11.876;2023-12-20T14:26:46;95538.31;;;3.23;100.00
23589;BME280;11972;48.078;11.876;2023-12-20T14:30:46;95530.50;;;3.23;100.00
23589;BME280;11972;48.078;11.876;2023-12-20T14:34:47;95537.34;;;3.24;100.00
23589;BME280;11972;48.078;11.876;2023-12-20T14:38:47;95540.78;;;3.24;100.00
23589;BME280;11972;48.078;11.876;2023-12-20T14:42:48;95551.94;;;3.27;100.00
23589;BME280;11972;48.078;11.876;2023-12-20T14:46:50;95549.16;;;3.28;100.00
23589;BME280;11972;48.078;11.876;2023-12-20T14:50:51;95545.59;;;3.29;100.00
23589;BME280;11972;48.078;11.876;2023-12-20T14:54:53;95543.28;;;3.26;100.00
23589;BME280;11972;48.078;11.876;2023-12-20T14:58:53;95540.13;;;3.22;100.00
23589;BME280;11972;48.078;11.876;2023-12-20T15:02:54;95556.03;;;3.10;100.00
23589;BME280;11972;48.078;11.876;2023-12-20T15:06:54;95547.81;;;3.05;100.00
23589;BME280;11972;48.078;11.876;2023-12-20T15:10:55;95551.34;;;3.04;100.00
23589;BME280;11972;48.078;11.876;2023-12-20T15:14:55;95556.56;;;3.04;100.00
23589;BME280;11972;48.078;11.876;2023-12-20T15:18:56;95562.06;;;3.01;100.00
23589;BME280;11972;48.078;11.876;2023-12-20T15:22:57;95564.81;;;2.99;100.00
23589;BME280;11972;48.078;11.876;2023-12-20T15:26:59;95563.97;;;2.98;100.00
23589;BME280;11972;48.078;11.876;2023-12-20T15:30:59;95556.41;;;2.95;100.00
23589;BME280;11972;48.078;11.876;2023-12-20T15:34:59;95559.44;;;2.91;100.00
23589;BME280;11972;48.078;11.876;2023-12-20T15:38:59;95545.56;;;2.90;100.00
23589;BME280;11972;48.078;11.876;2023-12-20T15:43:00;95556.72;;;2.92;100.00
23589;BME280;11972;48.078;11.876;2023-12-20T15:47:00;95546.53;;;2.89;100.00
23589;BME280;11972;48.078;11.876;2023-12-20T15:51:05;95557.94;;;2.88;100.00
23589;BME280;11972;48.078;11.876;2023-12-20T15:55:05;95552.97;;;2.85;100.00
23589;BME280;11972;48.078;11.876;2023-12-20T15:59:06;95553.50;;;2.79;100.00
23589;BME280;11972;48.078;11.876;2023-12-20T16:03:06;95538.66;;;2.70;100.00
23589;BME280;11972;48.078;11.876;2023-12-20T16:07:06;95542.47;;;2.56;100.00
23589;BME280;11972;48.078;11.876;2023-12-20T16:11:07;95545.66;;;2.29;100.00
23589;BME280;11972;48.078;11.876;2023-12-20T16:15:08;95548.06;;;2.21;100.00
23589;BME280;11972;48.078;11.876;2023-12-20T16:19:09;95539.91;;;2.05;100.00
23589;BME280;11972;48.078;11.876;2023-12-20T16:23:09;95552.00;;;1.85;100.00
23589;BME280;11972;48.078;11.876;2023-12-20T16:27:10;95559.56;;;1.67;100.00
23589;BME280;11972;48.078;11.876;2023-12-20T16:31:10;95560.97;;;1.50;100.00
23589;BME280;11972;48.078;11.876;2023-12-20T16:35:10;95561.78;;;1.51;100.00
23589;BME280;11972;48.078;11.876;2023-12-20T16:39:11;95574.91;;;1.81;100.00
23589;BME280;11972;48.078;11.876;2023-12-20T16:43:11;95568.31;;;2.08;100.00
23589;BME280;11972;48.078;11.876;2023-12-20T16:47:12;95585.47;;;2.31;100.00
23589;BME280;11972;48.078;11.876;2023-12-20T16:51:12;95587.88;;;2.54;100.00
23589;BME280;11972;48.078;11.876;2023-12-20T16:55:14;95594.66;;;2.76;100.00
23589;BME280;11972;48.078;11.876;2023-12-20T16:59:14;95597.31;;;2.85;100.00
23589;BME280;11972;48.078;11.876;2023-12-20T17:03:14;95602.69;;;2.93;100.00
23589;BME280;11972;48.078;11.876;2023-12-20T17:07:15;95604.91;;;2.98;100.00
23589;BME280;11972;48.078;11.876;2023-12-20T17:11:17;95609.03;;;3.01;100.00
23589;BME280;11972;48.078;11.876;2023-12-20T17:15:17;95606.28;;;3.02;100.00
23589;BME280;11972;48.078;11.876;2023-12-20T17:19:17;95605.22;;;3.05;100.00
23589;BME280;11972;48.078;11.876;2023-12-20T17:23:20;95606.84;;;3.06;100.00
23589;BME280;11972;48.078;11.876;2023-12-20T17:27:20;95606.16;;;3.04;100.00
23589;BME280;11972;48.078;11.876;2023-12-20T17:31:20;95613.97;;;3.04;100.00
23589;BME280;11972;48.078;11.876;2023-12-20T17:35:21;95617.56;;;3.03;100.00
23589;BME280;11972;48.078;11.876;2023-12-20T17:39:21;95622.19;;;2.89;100.00
23589;BME280;11972;48.078;11.876;2023-12-20T17:43:21;95615.31;;;2.88;100.00
23589;BME280;11972;48.078;11.876;2023-12-20T17:47:22;95625.47;;;2.91;100.00
23589;BME280;11972;48.078;11.876;2023-12-20T17:51:22;95620.72;;;2.96;100.00
23589;BME280;11972;48.078;11.876;2023-12-20T17:55:22;95625.78;;;2.98;100.00
23589;BME280;11972;48.078;11.876;2023-12-20T17:59:23;95623.84;;;3.00;100.00
23589;BME280;11972;48.078;11.876;2023-12-20T18:03:24;95624.81;;;2.99;100.00
23589;BME280;11972;48.078;11.876;2023-12-20T18:07:24;95621.38;;;2.98;100.00
23589;BME280;11972;48.078;11.876;2023-12-20T18:11:25;95624.41;;;3.04;100.00
23589;BME280;11972;48.078;11.876;2023-12-20T18:15:25;95630.09;;;3.09;100.00
23589;BME280;11972;48.078;11.876;2023-12-20T18:19:25;95626.75;;;3.07;100.00
23589;BME280;11972;48.078;11.876;2023-12-20T18:23:26;95625.78;;;2.98;100.00
23589;BME280;11972;48.078;11.876;2023-12-20T18:27:26;95636.03;;;2.80;100.00
23589;BME280;11972;48.078;11.876;2023-12-20T18:31:26;95619.41;;;2.81;100.00
23589;BME280;11972;48.078;11.876;2023-12-20T18:35:27;95627.59;;;2.67;100.00
23589;BME280;11972;48.078;11.876;2023-12-20T18:39:27;95617.09;;;2.47;100.00
23589;BME280;11972;48.078;11.876;2023-12-20T18:43:27;95626.81;;;2.45;100.00
23589;BME280;11972;48.078;11.876;2023-12-20T18:47:28;95631.13;;;2.56;100.00
23589;BME280;11972;48.078;11.876;2023-12-20T18:51:28;95628.38;;;2.58;100.00
23589;BME280;11972;48.078;11.876;2023-12-20T18:55:28;95630.16;;;2.57;100.00
23589;BME280;11972;48.078;11.876;2023-12-20T18:59:29;95635.16;;;2.70;100.00
23589;BME280;11972;48.078;11.876;2023-12-20T19:03:29;95630.94;;;2.79;100.00
23589;BME280;11972;48.078;11.876;2023-12-20T19:07:30;95622.44;;;2.86;100.00
23589;BME280;11972;48.078;11.876;2023-12-20T19:11:30;95626.28;;;2.92;100.00
23589;BME280;11972;48.078;11.876;2023-12-20T19:15:32;95609.56;;;2.94;100.00
23589;BME280;11972;48.078;11.876;2023-12-20T19:19:32;95597.47;;;2.93;100.00
23589;BME280;11972;48.078;11.876;2023-12-20T19:23:33;95609.81;;;2.91;100.00
23589;BME280;11972;48.078;11.876;2023-12-20T19:27:36;95608.16;;;2.81;100.00
23589;BME280;11972;48.078;11.876;2023-12-20T19:31:37;95603.84;;;2.70;100.00
23589;BME280;11972;48.078;11.876;2023-12-20T19:35:37;95607.50;;;2.58;100.00
23589;BME280;11972;48.078;11.876;2023-12-20T19:39:38;95595.84;;;2.52;100.00
23589;BME280;11972;48.078;11.876;2023-12-20T19:43:38;95598.44;;;2.52;100.00
23589;BME280;11972;48.078;11.876;2023-12-20T19:47:39;95593.63;;;2.47;100.00
23589;BME280;11972;48.078;11.876;2023-12-20T19:51:39;95592.88;;;2.36;100.00
23589;BME280;11972;48.078;11.876;2023-12-20T19:55:40;95585.72;;;2.28;100.00
23589;BME280;11972;48.078;11.876;2023-12-20T19:59:41;95582.38;;;2.26;100.00
23589;BME280;11972;48.078;11.876;2023-12-20T20:03:42;95584.09;;;2.37;100.00
23589;BME280;11972;48.078;11.876;2023-12-20T20:07:42;95576.88;;;2.50;100.00
23589;BME280;11972;48.078;11.876;2023-12-20T20:11:42;95580.94;;;2.64;100.00
23589;BME280;11972;48.078;11.876;2023-12-20T20:15:43;95571.19;;;2.76;100.00
23589;BME280;11972;48.078;11.876;2023-12-20T20:19:43;95566.97;;;2.84;100.00
23589;BME280;11972;48.078;11.876;2023-12-20T20:23:44;95562.59;;;2.94;100.00
23589;BME280;11972;48.078;11.876;2023-12-20T20:27:44;95562.34;;;3.07;100.00
23589;BME280;11972;48.078;11.876;2023-12-20T20:31:44;95553.84;;;3.15;100.00
23589;BME280;11972;48.078;11.876;2023-12-20T20:35:45;95543.69;;;3.21;100.00
23589;BME280;11972;48.078;11.876;2023-12-20T20:39:45;95533.50;;;3.28;100.00
23589;BME280;11972;48.078;11.876;2023-12-20T20:43:45;95527.06;;;3.32;100.00
23589;BME280;11972;48.078;11.876;2023-12-20T20:47:46;95526.38;;;3.40;100.00
23589;BME280;11972;48.078;11.876;2023-12-20T20:51:46;95536.28;;;3.46;100.00
23589;BME280;11972;48.078;11.876;2023-12-20T20:55:46;95527.31;;;3.48;100.00
23589;BME280;11972;48.078;11.876;2023-12-20T20:59:47;95529.66;;;3.52;100.00
23589;BME280;11972;48.078;11.876;2023-12-20T21:03:47;95533.25;;;3.51;100.00
23589;BME280;11972;48.078;11.876;2023-12-20T21:07:48;95532.13;;;3.53;100.00